createdAt,value
2023-05-11T00:00:53.087Z,3.80
2023-05-11T00:03:24.943Z,1.95
2023-05-11T00:05:56.797Z,1.97
2023-05-11T00:08:28.491Z,1.80
2023-05-11T00:11:02.997Z,2.43
2023-05-11T00:13:34.837Z,1.50
2023-05-11T00:16:06.660Z,1.73
2023-05-11T00:18:38.488Z,3.67
2023-05-11T00:21:10.262Z,1.90
2023-05-11T00:23:42.035Z,1.60
2023-05-11T00:26:13.775Z,2.17
2023-05-11T00:28:45.678Z,1.67
2023-05-11T00:31:17.421Z,1.60
2023-05-11T00:33:49.189Z,7.30
2023-05-11T00:36:22.084Z,2.60
2023-05-11T00:38:53.843Z,2.47
2023-05-11T00:41:25.615Z,2.50
2023-05-11T00:43:57.324Z,1.80
2023-05-11T00:46:29.451Z,2.30
2023-05-11T00:49:01.389Z,1.60
2023-05-11T00:51:33.257Z,2.00
2023-05-11T00:54:05.505Z,3.00
2023-05-11T00:56:37.157Z,1.90
2023-05-11T00:59:09.392Z,1.70
2023-05-11T01:01:41.290Z,1.63
2023-05-11T01:04:13.611Z,2.30
2023-05-11T01:06:53.094Z,2.60
2023-05-11T01:09:46.412Z,1.93
2023-05-11T01:12:37.017Z,1.80
2023-05-11T01:15:13.604Z,1.80
2023-05-11T01:18:11.831Z,1.80
2023-05-11T01:20:46.856Z,5.57
2023-05-11T01:23:43.207Z,2.40
2023-05-11T01:26:42.664Z,2.07
2023-05-11T01:29:35.605Z,1.80
2023-05-11T01:32:15.897Z,1.90
2023-05-11T01:34:52.009Z,1.55
2023-05-11T01:37:25.834Z,1.60
2023-05-11T01:40:01.365Z,1.53
2023-05-11T01:42:38.515Z,1.93
2023-05-11T01:45:13.094Z,1.70
2023-05-11T01:47:48.688Z,1.60
2023-05-11T01:50:24.258Z,1.90
2023-05-11T01:52:56.153Z,1.93
2023-05-11T01:55:30.988Z,1.60
2023-05-11T01:58:05.569Z,1.40
2023-05-11T02:00:38.736Z,1.80
2023-05-11T02:03:11.642Z,1.80
2023-05-11T02:05:45.416Z,1.80
2023-05-11T02:08:18.117Z,1.70
2023-05-11T02:10:51.106Z,1.33
2023-05-11T02:13:24.047Z,1.90
2023-05-11T02:15:58.621Z,1.50
2023-05-11T02:18:31.985Z,1.70
2023-05-11T02:21:04.645Z,2.30
2023-05-11T02:23:37.299Z,1.97
2023-05-11T02:26:10.921Z,2.03
2023-05-11T02:28:43.867Z,2.17
2023-05-11T02:31:27.534Z,1.77
2023-05-11T02:34:06.229Z,2.80
2023-05-11T02:36:39.187Z,2.07
2023-05-11T02:39:12.655Z,2.90
2023-05-11T02:41:46.084Z,1.90
2023-05-11T02:44:18.856Z,1.80
2023-05-11T02:46:52.504Z,1.90
2023-05-11T02:49:28.888Z,1.90
2023-05-11T02:52:03.641Z,1.80
2023-05-11T02:54:37.453Z,1.73
2023-05-11T02:57:09.505Z,1.50
2023-05-11T02:59:41.247Z,2.30
2023-05-11T03:02:13.400Z,2.03
2023-05-11T03:04:45.296Z,2.40
2023-05-11T03:07:17.134Z,1.88
2023-05-11T03:09:49.098Z,1.40
2023-05-11T03:12:21.527Z,1.93
2023-05-11T03:14:54.504Z,2.00
2023-05-11T03:17:28.559Z,2.50
2023-05-11T03:20:03.641Z,2.43
2023-05-11T03:22:37.490Z,2.10
2023-05-11T03:25:11.280Z,2.50
2023-05-11T03:27:44.090Z,1.80
2023-05-11T03:30:16.987Z,2.17
2023-05-11T03:32:49.474Z,3.10
2023-05-11T03:35:25.116Z,2.30
2023-05-11T03:37:58.260Z,3.33
2023-05-11T03:40:31.557Z,1.73
2023-05-11T03:43:05.348Z,2.73
2023-05-11T03:45:38.104Z,2.00
2023-05-11T03:48:11.384Z,2.60
2023-05-11T03:50:43.796Z,2.37
2023-05-11T03:53:16.834Z,2.50
2023-05-11T03:55:50.044Z,2.17
2023-05-11T03:58:22.702Z,1.83
2023-05-11T04:00:54.502Z,2.47
2023-05-11T04:03:26.316Z,2.47
2023-05-11T04:05:58.278Z,5.33
2023-05-11T04:08:30.020Z,1.90
2023-05-11T04:11:01.777Z,2.20
2023-05-11T04:13:33.451Z,2.60
2023-05-11T04:16:05.892Z,1.77
2023-05-11T04:18:37.696Z,3.07
2023-05-11T04:21:09.412Z,2.13
2023-05-11T04:23:41.133Z,1.73
2023-05-11T04:26:12.820Z,3.33
2023-05-11T04:28:44.574Z,1.73
2023-05-11T04:31:16.454Z,1.90
2023-05-11T04:33:48.356Z,2.23
2023-05-11T04:36:20.521Z,2.80
2023-05-11T04:38:53.252Z,2.75
2023-05-11T04:41:25.128Z,9.50
2023-05-11T04:43:56.828Z,3.40
2023-05-11T04:46:28.674Z,2.20
2023-05-11T04:49:00.576Z,1.90
2023-05-11T04:51:32.512Z,2.73
2023-05-11T04:54:04.234Z,3.70
2023-05-11T04:56:40.466Z,2.03
2023-05-11T04:59:12.193Z,4.07
2023-05-11T05:01:43.951Z,2.30
2023-05-11T05:04:16.565Z,2.63
2023-05-11T05:06:48.520Z,2.10
2023-05-11T05:09:20.325Z,2.20
2023-05-11T05:11:52.080Z,2.10
2023-05-11T05:14:23.847Z,2.20
2023-05-11T05:16:55.667Z,2.90
2023-05-11T05:19:27.375Z,2.17
2023-05-11T05:21:59.162Z,2.77
2023-05-11T05:24:30.942Z,2.40
2023-05-11T05:27:02.623Z,2.77
2023-05-11T05:29:34.300Z,2.80
2023-05-11T05:32:06.075Z,2.27
2023-05-11T05:34:37.793Z,3.60
2023-05-11T05:37:09.700Z,2.13
2023-05-11T05:39:41.518Z,2.20
2023-05-11T05:42:13.229Z,3.03
2023-05-11T05:44:45.011Z,3.67
2023-05-11T05:47:16.792Z,2.70
2023-05-11T05:49:48.512Z,2.33
2023-05-11T05:52:20.335Z,2.05
2023-05-11T05:54:52.113Z,6.60
2023-05-11T05:57:24.521Z,2.00
2023-05-11T05:59:56.610Z,2.10
2023-05-11T06:02:28.372Z,3.57
2023-05-11T06:05:00.221Z,2.03
2023-05-11T06:07:31.944Z,3.37
2023-05-11T06:10:04.060Z,1.97
2023-05-11T06:12:35.816Z,2.97
2023-05-11T06:15:08.199Z,1.90
2023-05-11T06:17:40.022Z,2.37
2023-05-11T06:20:12.171Z,2.00
2023-05-11T06:22:43.909Z,2.33
2023-05-11T06:25:16.081Z,2.00
2023-05-11T06:27:47.809Z,2.27
2023-05-11T06:30:19.704Z,2.50
2023-05-11T06:32:51.711Z,2.17
2023-05-11T06:35:23.580Z,2.13
2023-05-11T06:37:55.270Z,2.63
2023-05-11T06:40:27.550Z,3.20
2023-05-11T06:42:59.355Z,2.50
2023-05-11T06:45:31.171Z,2.50
2023-05-11T06:48:03.613Z,2.57
2023-05-11T06:50:35.367Z,2.57
2023-05-11T06:53:07.706Z,2.27
2023-05-11T06:55:39.928Z,2.87
2023-05-11T06:58:11.818Z,2.97
2023-05-11T07:00:43.633Z,2.57
2023-05-11T07:03:15.919Z,2.50
2023-05-11T07:05:47.771Z,2.93
2023-05-11T07:08:19.525Z,2.80
2023-05-11T07:10:52.108Z,4.20
2023-05-11T07:13:23.796Z,2.20
2023-05-11T07:15:57.626Z,2.33
2023-05-11T07:18:29.798Z,2.77
2023-05-11T07:21:01.530Z,4.50
2023-05-11T07:23:33.304Z,2.20
2023-05-11T07:26:09.070Z,4.40
2023-05-11T07:28:40.801Z,2.67
2023-05-11T07:31:12.661Z,2.80
2023-05-11T07:33:44.391Z,2.63
2023-05-11T07:36:16.110Z,2.63
2023-05-11T07:38:47.860Z,2.70
2023-05-11T07:41:21.310Z,2.85
2023-05-11T07:43:54.228Z,4.03
2023-05-11T07:46:26.070Z,3.10
2023-05-11T07:49:07.533Z,2.77
2023-05-11T07:51:47.407Z,4.03
2023-05-11T07:54:21.039Z,3.27
2023-05-11T07:56:53.668Z,2.57
2023-05-11T07:59:25.667Z,3.10
2023-05-11T08:01:57.468Z,3.37
2023-05-11T08:04:30.349Z,2.60
2023-05-11T08:07:02.681Z,2.90
2023-05-11T08:09:34.518Z,2.60
2023-05-11T08:12:06.421Z,2.40
2023-05-11T08:14:38.318Z,3.13
2023-05-11T08:17:10.161Z,2.60
2023-05-11T08:19:42.032Z,3.00
2023-05-11T08:22:13.787Z,2.60
2023-05-11T08:24:45.526Z,3.13
2023-05-11T08:27:17.264Z,3.43
2023-05-11T08:29:49.008Z,2.40
2023-05-11T08:32:21.293Z,2.03
2023-05-11T08:34:53.296Z,2.60
2023-05-11T08:37:25.136Z,2.67
2023-05-11T08:39:56.947Z,2.97
2023-05-11T08:42:29.704Z,2.83
2023-05-11T08:45:02.339Z,3.43
2023-05-11T08:47:34.237Z,2.93
2023-05-11T08:50:06.794Z,3.00
2023-05-11T08:52:38.661Z,2.50
2023-05-11T08:55:10.831Z,2.80
2023-05-11T08:57:45.746Z,2.53
2023-05-11T09:00:18.122Z,3.07
2023-05-11T09:02:50.622Z,2.70
2023-05-11T09:05:23.949Z,3.70
2023-05-11T09:08:00.223Z,2.83
2023-05-11T09:10:32.908Z,4.17
2023-05-11T09:13:04.825Z,4.20
2023-05-11T09:15:37.496Z,2.67
2023-05-11T09:18:10.076Z,2.93
2023-05-11T09:20:44.185Z,2.90
2023-05-11T09:23:17.474Z,2.70
2023-05-11T09:25:49.754Z,2.60
2023-05-11T09:28:25.983Z,3.43
2023-05-11T09:30:57.959Z,2.80
2023-05-11T09:33:29.791Z,2.97
2023-05-11T09:36:02.939Z,2.20
2023-05-11T09:38:34.726Z,3.10
2023-05-11T09:41:08.348Z,2.57
2023-05-11T09:43:40.057Z,2.40
2023-05-11T09:46:21.589Z,2.50
2023-05-11T09:49:01.117Z,2.47
2023-05-11T09:51:35.642Z,2.73
2023-05-11T09:54:18.013Z,1.90
2023-05-11T09:57:00.296Z,2.00
2023-05-11T09:59:42.569Z,2.53
2023-05-11T10:02:23.628Z,2.77
2023-05-11T10:04:57.719Z,2.60
2023-05-11T10:07:33.938Z,2.33
2023-05-11T10:10:07.376Z,2.20
2023-05-11T10:12:40.348Z,1.70
2023-05-11T10:15:13.554Z,2.00
2023-05-11T10:17:45.674Z,2.37
2023-05-11T10:20:18.242Z,2.07
2023-05-11T10:22:55.352Z,2.13
2023-05-11T10:25:27.311Z,2.05
2023-05-11T10:27:59.354Z,2.70
2023-05-11T10:30:33.279Z,2.23
2023-05-11T10:33:06.781Z,1.90
2023-05-11T10:35:39.189Z,1.87
2023-05-11T10:38:13.200Z,2.43
2023-05-11T10:40:46.431Z,2.80
2023-05-11T10:43:44.353Z,2.57
2023-05-11T10:46:56.831Z,1.80
2023-05-11T10:49:47.518Z,1.80
2023-05-11T10:52:48.519Z,2.10
2023-05-11T10:55:36.380Z,8.43
2023-05-11T10:58:13.295Z,2.37
2023-05-11T11:00:47.679Z,2.63
2023-05-11T11:03:19.681Z,2.40
2023-05-11T11:05:51.471Z,2.17
2023-05-11T11:08:23.976Z,3.10
2023-05-11T11:10:56.249Z,1.60
2023-05-11T11:13:27.956Z,3.17
2023-05-11T11:16:02.766Z,2.70
2023-05-11T11:18:34.601Z,2.72
2023-05-11T11:21:06.652Z,6.60
2023-05-11T11:23:48.971Z,2.17
2023-05-11T11:26:46.866Z,1.77
2023-05-11T11:29:18.712Z,2.23
2023-05-11T11:31:50.437Z,2.20
2023-05-11T11:34:25.131Z,2.83
2023-05-11T11:36:58.754Z,4.37
2023-05-11T11:39:42.686Z,2.67
2023-05-11T11:42:16.364Z,1.90
2023-05-11T11:44:48.484Z,2.30
2023-05-11T11:47:26.230Z,2.70
2023-05-11T11:50:12.349Z,3.00
2023-05-11T11:52:44.076Z,1.60
2023-05-11T11:55:45.602Z,1.57
2023-05-11T11:58:42.434Z,1.20
2023-05-11T12:01:26.588Z,1.50
2023-05-11T12:04:04.708Z,1.77
2023-05-11T12:06:41.303Z,3.70
2023-05-11T12:09:19.121Z,1.30
2023-05-11T12:11:52.322Z,1.33
2023-05-11T12:14:25.059Z,1.60
2023-05-11T12:17:04.124Z,1.10
2023-05-11T12:19:36.709Z,2.10
2023-05-11T12:22:10.674Z,1.50
2023-05-11T12:24:43.394Z,2.03
2023-05-11T12:27:19.048Z,2.03
2023-05-11T12:29:51.460Z,2.60
2023-05-11T12:32:28.031Z,1.80
2023-05-11T12:35:01.651Z,3.60
2023-05-11T12:37:33.466Z,3.43
2023-05-11T12:40:10.368Z,1.50
2023-05-11T12:42:57.398Z,2.53
2023-05-11T12:45:29.666Z,1.10
2023-05-11T12:48:01.678Z,1.43
2023-05-11T12:50:39.237Z,1.43
2023-05-11T12:53:16.050Z,1.20
2023-05-11T12:55:58.986Z,1.30
2023-05-11T12:58:38.428Z,1.60
2023-05-11T13:01:10.370Z,2.27
2023-05-11T13:03:47.453Z,1.40
2023-05-11T13:06:20.536Z,1.60
2023-05-11T13:08:52.460Z,1.60
2023-05-11T13:11:26.854Z,1.70
2023-05-11T13:13:58.774Z,1.80
2023-05-11T13:16:32.590Z,1.63
2023-05-11T13:19:06.460Z,2.17
2023-05-11T13:21:38.398Z,2.47
2023-05-11T13:24:20.572Z,1.50
2023-05-11T13:26:53.469Z,1.47
2023-05-11T13:29:26.173Z,2.37
2023-05-11T13:31:58.066Z,3.20
2023-05-11T13:34:29.800Z,1.60
2023-05-11T13:37:01.529Z,3.93
2023-05-11T13:39:33.207Z,1.90
2023-05-11T13:42:05.154Z,1.70
2023-05-11T13:44:36.833Z,3.37
2023-05-11T13:47:08.662Z,1.60
2023-05-11T13:49:40.460Z,1.80
2023-05-11T13:52:12.230Z,1.90
2023-05-11T13:54:43.944Z,1.53
2023-05-11T13:57:15.968Z,1.47
2023-05-11T13:59:47.671Z,1.30
2023-05-11T14:02:19.632Z,1.70
2023-05-11T14:04:51.402Z,1.57
2023-05-11T14:07:29.713Z,1.50
2023-05-11T14:10:08.054Z,2.27
2023-05-11T14:12:39.854Z,1.20
2023-05-11T14:15:11.872Z,1.80
2023-05-11T14:17:43.955Z,1.57
2023-05-11T14:20:16.287Z,2.33
2023-05-11T14:22:48.060Z,1.60
2023-05-11T14:25:20.043Z,2.50
2023-05-11T14:27:54.591Z,1.60
2023-05-11T14:30:26.354Z,1.50
2023-05-11T14:32:58.136Z,3.13
2023-05-11T14:35:29.915Z,1.93
2023-05-11T14:38:02.857Z,1.73
2023-05-11T14:40:34.579Z,1.47
2023-05-11T14:43:06.519Z,1.60
2023-05-11T14:45:38.233Z,1.40
2023-05-11T14:48:10.318Z,1.80
2023-05-11T14:50:43.024Z,1.33
2023-05-11T14:53:14.768Z,1.53
2023-05-11T14:55:46.599Z,2.20
2023-05-11T14:58:18.350Z,1.60
2023-05-11T15:00:50.042Z,1.50
2023-05-11T15:03:21.913Z,1.20
2023-05-11T15:05:53.685Z,1.40
2023-05-11T15:08:30.005Z,3.93
2023-05-11T15:11:02.356Z,1.40
2023-05-11T15:13:34.123Z,1.57
2023-05-11T15:16:06.235Z,1.57
2023-05-11T15:18:38.054Z,1.50
2023-05-11T15:21:09.861Z,1.73
2023-05-11T15:23:41.611Z,1.40
2023-05-11T15:26:14.585Z,1.83
2023-05-11T15:28:46.319Z,2.17
2023-05-11T15:31:18.112Z,1.60
2023-05-11T15:33:50.009Z,1.47
2023-05-11T15:36:21.929Z,1.47
2023-05-11T15:38:53.679Z,3.47
2023-05-11T15:41:25.813Z,1.40
2023-05-11T15:43:57.515Z,1.87
2023-05-11T15:46:29.276Z,1.40
2023-05-11T15:49:01.369Z,1.80
2023-05-11T15:51:33.310Z,1.43
2023-05-11T15:54:05.150Z,1.27
2023-05-11T15:56:36.841Z,1.87
2023-05-11T15:59:08.751Z,1.50
2023-05-11T16:01:40.685Z,1.67
2023-05-11T16:04:12.450Z,1.60
2023-05-11T16:06:44.518Z,2.63
2023-05-11T16:09:16.695Z,2.13
2023-05-11T16:11:49.098Z,2.10
2023-05-11T16:14:20.849Z,1.50
2023-05-11T16:16:52.681Z,2.30
2023-05-11T16:19:24.488Z,1.40
2023-05-11T16:21:56.382Z,2.00
2023-05-11T16:24:30.612Z,1.50
2023-05-11T16:27:04.242Z,1.67
2023-05-11T16:29:36.525Z,1.50
2023-05-11T16:32:08.328Z,2.57
2023-05-11T16:34:40.470Z,1.70
2023-05-11T16:37:12.553Z,2.10
2023-05-11T16:39:44.803Z,1.63
2023-05-11T16:42:16.512Z,4.27
2023-05-11T16:44:48.367Z,1.53
2023-05-11T16:47:20.085Z,2.00
2023-05-11T16:49:51.903Z,1.90
2023-05-11T16:52:24.708Z,2.37
2023-05-11T16:54:58.976Z,3.20
2023-05-11T16:57:31.613Z,1.57
2023-05-11T17:00:03.548Z,2.33
2023-05-11T17:02:35.513Z,2.27
2023-05-11T17:05:08.073Z,2.10
2023-05-11T17:07:39.823Z,2.00
2023-05-11T17:10:11.805Z,2.03
2023-05-11T17:12:43.522Z,2.47
2023-05-11T17:15:15.357Z,1.90
2023-05-11T17:17:47.329Z,2.17
2023-05-11T17:20:20.959Z,2.07
2023-05-11T17:22:53.409Z,2.57
2023-05-11T17:25:25.665Z,2.97
2023-05-11T17:27:57.624Z,4.17
2023-05-11T17:30:39.800Z,2.53
2023-05-11T17:33:12.318Z,2.40
2023-05-11T17:35:44.284Z,2.80
2023-05-11T17:38:15.989Z,3.43
2023-05-11T17:40:47.809Z,2.50
2023-05-11T17:43:19.576Z,2.90
2023-05-11T17:45:51.292Z,2.53
2023-05-11T17:48:24.169Z,2.80
2023-05-11T17:50:57.371Z,2.87
2023-05-11T17:53:29.669Z,3.00
2023-05-11T17:56:01.456Z,3.00
2023-05-11T17:58:33.486Z,2.97
2023-05-11T18:01:09.124Z,5.67
2023-05-11T18:03:41.416Z,10.93
2023-05-11T18:06:13.280Z,2.80
2023-05-11T18:08:45.070Z,3.90
2023-05-11T18:11:17.340Z,2.60
2023-05-11T18:13:49.126Z,2.80
2023-05-11T18:16:21.391Z,3.60
2023-05-11T18:18:53.193Z,3.37
2023-05-11T18:21:26.714Z,2.73
2023-05-11T18:23:58.436Z,2.70
2023-05-11T18:26:30.294Z,2.90
2023-05-11T18:29:02.138Z,2.63
2023-05-11T18:31:33.887Z,3.80
2023-05-11T18:34:05.785Z,2.83
2023-05-11T18:36:37.602Z,2.53
2023-05-11T18:39:09.399Z,2.93
2023-05-11T18:41:41.182Z,3.87
2023-05-11T18:44:15.050Z,2.77
2023-05-11T18:46:46.876Z,2.80
2023-05-11T18:49:18.653Z,2.70
2023-05-11T18:51:50.396Z,3.20
2023-05-11T18:54:22.305Z,3.10
2023-05-11T18:56:53.985Z,5.50
2023-05-11T18:59:25.681Z,2.97
2023-05-11T19:01:57.675Z,3.50
2023-05-11T19:04:29.466Z,3.00
2023-05-11T19:07:02.729Z,3.23
2023-05-11T19:09:37.509Z,3.00
2023-05-11T19:12:09.544Z,3.03
2023-05-11T19:14:41.340Z,3.20
2023-05-11T19:17:13.132Z,7.13
2023-05-11T19:19:44.817Z,3.95
2023-05-11T19:22:17.433Z,3.90
2023-05-11T19:24:50.380Z,4.00
2023-05-11T19:27:22.033Z,4.50
2023-05-11T19:29:53.699Z,4.07
2023-05-11T19:32:25.585Z,3.97
2023-05-11T19:34:57.347Z,3.87
2023-05-11T19:37:29.041Z,4.30
2023-05-11T19:40:19.273Z,3.50
2023-05-11T19:42:52.752Z,3.33
2023-05-11T19:45:24.780Z,3.73
2023-05-11T19:47:57.235Z,4.40
2023-05-11T19:50:29.082Z,3.70
2023-05-11T19:53:00.799Z,3.67
2023-05-11T19:55:32.642Z,5.90
2023-05-11T19:58:04.478Z,4.13
2023-05-11T20:00:36.998Z,4.15
2023-05-11T20:03:09.071Z,4.73
2023-05-11T20:05:40.853Z,4.33
2023-05-11T20:08:13.265Z,5.00
2023-05-11T20:10:44.959Z,4.40
2023-05-11T20:13:16.809Z,4.63
2023-05-11T20:15:48.872Z,4.13
2023-05-11T20:18:20.656Z,4.83
2023-05-11T20:20:52.382Z,4.60
2023-05-11T20:23:24.065Z,3.67
2023-05-11T20:25:55.759Z,3.60
2023-05-11T20:28:27.977Z,3.50
2023-05-11T20:30:59.679Z,4.60
2023-05-11T20:36:06.281Z,4.10
2023-05-11T20:38:38.032Z,4.77
2023-05-11T20:41:10.204Z,3.53
2023-05-11T20:43:42.032Z,5.13
2023-05-11T20:46:15.702Z,5.43
2023-05-11T20:48:51.534Z,3.90
2023-05-11T20:51:23.697Z,4.00
2023-05-11T20:53:55.987Z,4.67
2023-05-11T20:56:27.647Z,4.30
2023-05-11T20:58:59.436Z,4.00
2023-05-11T21:01:31.230Z,3.73
2023-05-11T21:04:03.041Z,10.40
2023-05-11T21:06:34.969Z,5.00
2023-05-11T21:09:06.728Z,5.33
2023-05-11T21:11:38.395Z,4.73
2023-05-11T21:14:10.143Z,5.07
2023-05-11T21:16:41.922Z,6.30
2023-05-11T21:19:15.927Z,5.40
2023-05-11T21:21:49.533Z,4.65
2023-05-11T21:24:21.319Z,4.93
2023-05-11T21:26:53.060Z,4.57
2023-05-11T21:29:24.776Z,4.13
2023-05-11T21:31:56.591Z,5.40
2023-05-11T21:34:28.388Z,6.13
2023-05-11T21:37:00.088Z,6.47
2023-05-11T21:39:31.838Z,6.40
2023-05-11T21:42:04.174Z,5.00
2023-05-11T21:44:35.921Z,5.50
2023-05-11T21:47:07.725Z,6.10
2023-05-11T21:49:39.413Z,5.10
2023-05-11T21:52:11.193Z,6.87
2023-05-11T21:54:43.180Z,5.77
2023-05-11T21:57:15.585Z,6.03
2023-05-11T21:59:48.186Z,5.43
2023-05-11T22:02:21.298Z,5.63
2023-05-11T22:04:53.012Z,6.87
2023-05-11T22:07:24.935Z,5.60
2023-05-11T22:09:57.736Z,6.33
2023-05-11T22:12:29.454Z,6.07
2023-05-11T22:15:01.385Z,6.83
2023-05-11T22:17:33.149Z,6.13
2023-05-11T22:20:06.502Z,6.70
2023-05-11T22:22:38.338Z,6.57
2023-05-11T22:25:10.436Z,6.33
2023-05-11T22:27:42.290Z,6.10
2023-05-11T22:30:14.120Z,6.60
2023-05-11T22:32:45.824Z,6.85
2023-05-11T22:35:17.930Z,7.00
2023-05-11T22:37:49.745Z,7.33
2023-05-11T22:40:21.586Z,6.70
2023-05-11T22:42:53.396Z,7.50
2023-05-11T22:45:25.077Z,6.27
2023-05-11T22:47:56.782Z,6.57
2023-05-11T22:50:28.506Z,7.53
2023-05-11T22:53:00.494Z,12.27
2023-05-11T22:55:33.619Z,7.03
2023-05-11T22:58:05.355Z,7.10
2023-05-11T23:00:37.251Z,6.87
2023-05-11T23:03:09.066Z,6.00
2023-05-11T23:05:40.770Z,6.37
2023-05-11T23:08:12.492Z,6.70
2023-05-11T23:10:44.201Z,8.50
2023-05-11T23:13:16.049Z,7.90
2023-05-11T23:15:47.735Z,9.50
2023-05-11T23:18:19.824Z,6.13
2023-05-11T23:20:58.433Z,6.17
2023-05-11T23:23:30.290Z,6.57
2023-05-11T23:26:02.005Z,6.70
2023-05-11T23:28:33.742Z,6.43
2023-05-11T23:31:05.504Z,6.80
2023-05-11T23:33:37.744Z,6.03
2023-05-11T23:36:09.840Z,6.10
2023-05-11T23:38:41.556Z,6.00
2023-05-11T23:41:13.346Z,6.40
2023-05-11T23:43:45.102Z,5.57
2023-05-11T23:46:16.898Z,6.70
2023-05-11T23:48:48.615Z,5.47
2023-05-11T23:51:20.305Z,6.80
2023-05-11T23:53:52.030Z,6.57
2023-05-11T23:56:23.847Z,6.77
2023-05-11T23:58:55.525Z,6.60
